createdAt,value
2018-03-28T00:02:44.720Z,15.88
2018-03-28T00:05:48.053Z,14.18
2018-03-28T00:08:51.482Z,15.82
2018-03-28T00:11:54.806Z,14.60
2018-03-28T00:14:58.129Z,14.77
2018-03-28T00:18:01.455Z,15.43
2018-03-28T00:21:04.937Z,15.68
2018-03-28T00:24:08.369Z,15.52
2018-03-28T00:27:11.681Z,14.48
2018-03-28T00:30:15.155Z,13.88
2018-03-28T00:33:19.046Z,15.57
2018-03-28T00:36:25.140Z,16.00
2018-03-28T00:39:31.668Z,14.93
2018-03-28T00:42:35.005Z,14.10
2018-03-28T00:45:38.338Z,16.45
2018-03-28T00:48:41.796Z,15.65
2018-03-28T00:51:45.124Z,15.60
2018-03-28T00:54:48.483Z,17.52
2018-03-28T00:57:52.946Z,15.85
2018-03-28T01:00:57.029Z,15.73
2018-03-28T01:04:00.573Z,14.40
2018-03-28T01:07:03.972Z,14.75
2018-03-28T01:10:11.266Z,14.65
2018-03-28T01:13:14.809Z,16.00
2018-03-28T01:16:19.003Z,14.70
2018-03-28T01:19:22.455Z,15.60
2018-03-28T01:22:26.595Z,15.18
2018-03-28T01:25:30.025Z,15.82
2018-03-28T01:28:37.992Z,14.13
2018-03-28T01:31:41.679Z,14.38
2018-03-28T01:34:45.044Z,15.30
2018-03-28T01:37:48.394Z,14.13
2018-03-28T01:40:51.690Z,15.32
2018-03-28T01:43:55.803Z,14.77
2018-03-28T01:46:59.115Z,15.38
2018-03-28T01:50:02.492Z,13.30
2018-03-28T01:53:06.921Z,14.98
2018-03-28T01:56:11.040Z,14.32
2018-03-28T01:59:14.414Z,14.50
2018-03-28T02:02:17.788Z,14.25
2018-03-28T02:05:21.213Z,13.57
2018-03-28T02:08:24.679Z,13.25
2018-03-28T02:11:28.484Z,14.10
2018-03-28T02:14:32.053Z,14.00
2018-03-28T02:17:35.467Z,13.57
2018-03-28T02:20:38.836Z,12.25
2018-03-28T02:23:43.007Z,13.25
2018-03-28T02:26:47.108Z,12.82
2018-03-28T02:29:50.511Z,11.85
2018-03-28T02:32:53.889Z,13.82
2018-03-28T02:35:57.293Z,12.05
2018-03-28T02:39:01.441Z,11.55
2018-03-28T02:42:04.858Z,12.50
2018-03-28T02:45:08.289Z,12.60
2018-03-28T02:48:12.606Z,11.90
2018-03-28T02:51:16.584Z,11.77
2018-03-28T02:54:20.030Z,10.27
2018-03-28T02:57:23.647Z,12.07
2018-03-28T03:00:27.101Z,10.30
2018-03-28T03:06:50.065Z,10.25
2018-03-28T03:09:53.454Z,10.10
2018-03-28T03:12:56.829Z,9.95
2018-03-28T03:16:00.603Z,9.50
2018-03-28T03:19:03.845Z,10.90
2018-03-28T03:22:07.153Z,9.48
2018-03-28T03:25:11.061Z,9.43
2018-03-28T03:28:14.382Z,9.82
2018-03-28T03:31:17.760Z,22.30
2018-03-28T03:34:21.200Z,9.23
2018-03-28T03:37:24.613Z,9.25
2018-03-28T03:40:27.906Z,8.95
2018-03-28T03:43:32.041Z,10.35
2018-03-28T03:46:35.502Z,7.97
2018-03-28T03:49:38.912Z,11.07
2018-03-28T03:52:42.233Z,8.70
2018-03-28T03:55:45.572Z,9.05
2018-03-28T03:58:49.308Z,8.98
2018-03-28T04:01:52.766Z,8.18
2018-03-28T04:04:56.607Z,8.80
2018-03-28T04:07:59.934Z,8.50
2018-03-28T04:11:04.665Z,8.30
2018-03-28T04:14:09.780Z,7.35
2018-03-28T04:17:13.152Z,8.57
2018-03-28T04:20:16.650Z,8.13
2018-03-28T04:23:19.978Z,8.32
2018-03-28T04:26:24.084Z,7.62
2018-03-28T04:29:27.461Z,8.10
2018-03-28T04:32:30.975Z,7.35
2018-03-28T04:35:34.311Z,8.27
2018-03-28T04:38:38.394Z,7.05
2018-03-28T04:41:41.777Z,7.97
2018-03-28T04:44:45.492Z,7.32
2018-03-28T04:47:48.982Z,8.13
2018-03-28T04:50:52.798Z,7.90
2018-03-28T04:53:56.138Z,11.82
2018-03-28T04:56:59.498Z,8.43
2018-03-28T05:00:03.190Z,7.45
2018-03-28T05:03:06.692Z,7.90
2018-03-28T05:06:10.055Z,8.43
2018-03-28T05:09:13.610Z,7.25
2018-03-28T05:12:16.992Z,8.43
2018-03-28T05:15:20.640Z,9.60
2018-03-28T05:18:24.035Z,8.27
2018-03-28T05:21:29.663Z,9.32
2018-03-28T05:24:33.930Z,7.62
2018-03-28T05:27:37.416Z,7.12
2018-03-28T05:30:40.923Z,8.65
2018-03-28T05:33:45.370Z,7.90
2018-03-28T05:36:48.737Z,8.98
2018-03-28T05:39:52.321Z,7.78
2018-03-28T05:42:55.757Z,7.62
2018-03-28T05:46:00.068Z,6.90
2018-03-28T05:49:03.557Z,8.55
2018-03-28T05:52:07.101Z,7.32
2018-03-28T05:55:10.504Z,7.25
2018-03-28T05:58:14.075Z,7.68
2018-03-28T06:01:17.492Z,7.47
2018-03-28T06:04:21.741Z,7.10
2018-03-28T06:07:25.177Z,7.32
2018-03-28T06:10:29.424Z,7.57
2018-03-28T06:13:32.887Z,6.32
2018-03-28T06:16:36.331Z,6.40
2018-03-28T06:19:39.717Z,6.55
2018-03-28T06:22:43.874Z,6.85
2018-03-28T06:25:47.256Z,6.25
2018-03-28T06:28:50.674Z,6.47
2018-03-28T06:31:54.119Z,7.70
2018-03-28T06:34:58.508Z,6.80
2018-03-28T06:38:01.987Z,7.07
2018-03-28T06:41:05.491Z,7.37
2018-03-28T06:44:09.050Z,7.35
2018-03-28T06:47:13.571Z,7.85
2018-03-28T06:50:16.823Z,7.68
2018-03-28T06:53:20.461Z,6.62
2018-03-28T06:56:25.435Z,6.97
2018-03-28T06:59:28.973Z,8.02
2018-03-28T07:02:33.125Z,7.15
2018-03-28T07:05:36.503Z,7.53
2018-03-28T07:08:40.642Z,6.75
2018-03-28T07:11:44.023Z,6.47
2018-03-28T07:14:47.329Z,6.50
2018-03-28T07:17:50.940Z,5.62
2018-03-28T07:20:54.525Z,6.03
2018-03-28T07:23:57.927Z,6.25
2018-03-28T07:27:01.271Z,6.32
2018-03-28T07:30:04.735Z,5.85
2018-03-28T07:33:08.448Z,6.15
2018-03-28T07:36:11.777Z,6.75
2018-03-28T07:39:15.101Z,6.53
2018-03-28T07:42:18.428Z,7.22
2018-03-28T07:45:22.085Z,6.15
2018-03-28T07:48:25.519Z,5.70
2018-03-28T07:51:28.849Z,5.85
2018-03-28T07:54:32.231Z,5.70
2018-03-28T07:57:35.637Z,5.90
2018-03-28T08:00:39.753Z,6.15
2018-03-28T08:03:43.192Z,5.90
2018-03-28T08:06:46.518Z,4.95
2018-03-28T08:09:49.958Z,5.37
2018-03-28T08:12:53.566Z,5.10
2018-03-28T08:15:56.877Z,5.10
2018-03-28T08:19:00.236Z,4.72
2018-03-28T08:22:03.631Z,5.35
2018-03-28T08:25:06.989Z,4.60
2018-03-28T08:28:10.405Z,4.57
2018-03-28T08:31:13.748Z,4.20
2018-03-28T08:34:17.281Z,4.22
2018-03-28T08:37:20.907Z,4.93
2018-03-28T08:40:24.229Z,4.22
2018-03-28T08:43:27.622Z,4.43
2018-03-28T08:46:31.053Z,4.47
2018-03-28T08:49:35.196Z,3.43
2018-03-28T08:52:39.250Z,3.90
2018-03-28T08:55:42.772Z,3.53
2018-03-28T08:58:46.261Z,3.37
2018-03-28T09:01:50.026Z,3.43
2018-03-28T09:04:53.335Z,3.00
2018-03-28T09:07:56.707Z,4.03
2018-03-28T09:11:00.813Z,2.57
2018-03-28T09:14:05.094Z,2.83
2018-03-28T09:17:08.480Z,3.90
2018-03-28T09:20:12.039Z,3.20
2018-03-28T09:23:16.407Z,3.30
2018-03-28T09:26:19.828Z,2.90
2018-03-28T09:29:23.522Z,2.50
2018-03-28T09:32:27.665Z,2.63
2018-03-28T09:35:31.861Z,2.40
2018-03-28T09:38:35.237Z,2.20
2018-03-28T09:41:39.762Z,2.67
2018-03-28T09:44:43.092Z,3.60
2018-03-28T09:47:46.559Z,2.73
2018-03-28T09:50:49.854Z,2.33
2018-03-28T09:53:53.352Z,2.67
2018-03-28T09:56:57.780Z,2.57
2018-03-28T10:00:01.193Z,2.37
2018-03-28T10:03:10.220Z,2.13
2018-03-28T10:06:13.562Z,2.63
2018-03-28T10:09:16.977Z,2.70
2018-03-28T10:12:21.311Z,2.80
2018-03-28T10:15:25.368Z,2.97
2018-03-28T10:18:30.125Z,3.07
2018-03-28T10:21:33.417Z,3.10
2018-03-28T10:24:36.781Z,3.00
2018-03-28T10:27:40.070Z,3.37
2018-03-28T10:30:43.473Z,3.17
2018-03-28T10:33:46.903Z,3.10
2018-03-28T10:36:50.340Z,3.70
2018-03-28T10:39:53.965Z,3.37
2018-03-28T10:42:57.268Z,3.20
2018-03-28T10:46:00.980Z,3.77
2018-03-28T10:49:04.277Z,2.67
2018-03-28T10:52:07.627Z,3.03
2018-03-28T10:55:10.996Z,2.90
2018-03-28T10:58:14.471Z,3.13
2018-03-28T11:01:17.875Z,3.30
2018-03-28T11:04:21.302Z,3.43
2018-03-28T11:07:25.799Z,2.93
2018-03-28T11:10:29.203Z,3.30
2018-03-28T11:13:33.180Z,3.17
2018-03-28T11:16:36.559Z,3.10
2018-03-28T11:19:39.937Z,2.70
2018-03-28T11:22:43.273Z,2.83
2018-03-28T11:25:46.702Z,3.40
2018-03-28T11:28:50.445Z,2.83
2018-03-28T11:31:53.745Z,3.33
2018-03-28T11:34:57.249Z,2.90
2018-03-28T11:38:00.648Z,2.80
2018-03-28T11:41:04.060Z,3.20
2018-03-28T11:44:08.148Z,2.90
2018-03-28T11:47:11.481Z,3.00
2018-03-28T11:50:14.807Z,2.80
2018-03-28T11:53:18.176Z,3.43
2018-03-28T11:56:21.510Z,3.07
2018-03-28T11:59:24.793Z,3.37
2018-03-28T12:02:28.197Z,3.27
2018-03-28T12:05:31.651Z,3.87
2018-03-28T12:08:34.970Z,2.77
2018-03-28T12:11:38.402Z,3.90
2018-03-28T12:14:41.810Z,3.83
2018-03-28T12:17:45.091Z,3.67
2018-03-28T12:20:48.443Z,5.87
2018-03-28T12:23:52.076Z,3.57
2018-03-28T12:26:55.415Z,3.20
2018-03-28T12:29:59.250Z,3.43
2018-03-28T12:33:02.654Z,4.63
2018-03-28T12:36:05.978Z,4.27
2018-03-28T12:39:09.390Z,3.57
2018-03-28T12:42:12.712Z,4.30
2018-03-28T12:45:16.024Z,4.10
2018-03-28T12:48:19.349Z,4.13
2018-03-28T12:51:22.744Z,3.57
2018-03-28T12:54:26.903Z,3.70
2018-03-28T12:57:30.511Z,3.50
2018-03-28T13:00:33.876Z,4.27
2018-03-28T13:03:37.921Z,3.03
2018-03-28T13:06:41.269Z,2.67
2018-03-28T13:09:44.565Z,3.30
2018-03-28T13:12:47.866Z,3.20
2018-03-28T13:15:51.446Z,3.13
2018-03-28T13:18:55.483Z,3.33
2018-03-28T13:21:58.788Z,2.90
2018-03-28T13:25:02.878Z,2.80
2018-03-28T13:28:06.336Z,2.90
2018-03-28T13:31:09.646Z,3.00
2018-03-28T13:34:13.036Z,2.63
2018-03-28T13:37:16.502Z,2.60
2018-03-28T13:40:19.840Z,1.93
2018-03-28T13:43:23.955Z,2.40
2018-03-28T13:46:27.266Z,2.63
2018-03-28T13:49:30.588Z,3.97
2018-03-28T13:52:33.879Z,3.70
2018-03-28T13:55:37.192Z,4.63
2018-03-28T13:58:40.616Z,4.60
2018-03-28T14:01:43.996Z,3.83
2018-03-28T14:04:47.304Z,4.27
2018-03-28T14:07:50.584Z,4.33
2018-03-28T14:10:53.904Z,5.10
2018-03-28T14:13:57.223Z,5.57
2018-03-28T14:17:00.584Z,8.63
2018-03-28T14:20:03.903Z,5.70
2018-03-28T14:23:07.361Z,6.13
2018-03-28T14:26:10.710Z,6.23
2018-03-28T14:29:14.007Z,5.80
2018-03-28T14:32:17.425Z,6.47
2018-03-28T14:35:21.564Z,7.03
2018-03-28T14:38:25.007Z,6.77
2018-03-28T14:41:29.106Z,7.00
2018-03-28T14:44:32.549Z,7.23
2018-03-28T14:47:35.828Z,7.53
2018-03-28T14:50:39.089Z,7.17
2018-03-28T14:53:43.189Z,7.07
2018-03-28T14:56:46.833Z,7.17
2018-03-28T14:59:50.170Z,7.47
2018-03-28T15:02:53.608Z,6.93
2018-03-28T15:05:57.717Z,6.80
2018-03-28T15:09:01.062Z,7.40
2018-03-28T15:12:05.099Z,6.93
2018-03-28T15:15:08.526Z,7.30
2018-03-28T15:18:11.817Z,8.67
2018-03-28T15:21:15.084Z,7.97
2018-03-28T15:24:18.392Z,8.03
2018-03-28T15:27:21.698Z,7.97
2018-03-28T15:30:26.650Z,8.57
2018-03-28T15:33:30.872Z,7.53
2018-03-28T15:36:35.222Z,6.63
2018-03-28T15:39:38.551Z,6.87
2018-03-28T15:42:41.855Z,7.63
2018-03-28T15:45:45.159Z,6.53
2018-03-28T15:48:48.481Z,6.53
2018-03-28T15:51:51.810Z,6.30
2018-03-28T15:54:55.104Z,6.53
2018-03-28T15:57:58.389Z,6.37
2018-03-28T16:01:01.763Z,6.80
2018-03-28T16:04:06.152Z,6.93
2018-03-28T16:07:10.213Z,7.93
2018-03-28T16:10:13.668Z,7.23
2018-03-28T16:13:16.961Z,6.33
2018-03-28T16:16:20.306Z,5.77
2018-03-28T16:19:23.685Z,5.73
2018-03-28T16:22:27.097Z,6.20
2018-03-28T16:25:30.606Z,7.40
2018-03-28T16:28:33.949Z,6.78
2018-03-28T16:31:37.829Z,6.45
2018-03-28T16:34:41.899Z,5.07
2018-03-28T16:37:45.184Z,5.30
2018-03-28T16:40:48.580Z,5.03
2018-03-28T16:43:51.962Z,4.45
2018-03-28T16:46:56.258Z,3.60
2018-03-28T16:49:59.612Z,7.28
2018-03-28T16:53:03.052Z,5.00
2018-03-28T16:56:06.421Z,5.70
2018-03-28T16:59:09.788Z,5.85
2018-03-28T17:02:13.191Z,7.80
2018-03-28T17:05:16.706Z,6.37
2018-03-28T17:08:20.239Z,6.22
2018-03-28T17:11:23.647Z,9.82
2018-03-28T17:14:26.959Z,7.62
2018-03-28T17:17:30.611Z,8.07
2018-03-28T17:20:34.000Z,12.18
2018-03-28T17:23:37.375Z,12.18
2018-03-28T17:26:40.725Z,8.63
2018-03-28T17:29:44.131Z,8.38
2018-03-28T17:32:47.541Z,6.28
2018-03-28T17:35:50.978Z,7.47
2018-03-28T17:38:54.275Z,7.05
2018-03-28T17:41:57.657Z,5.68
2018-03-28T17:45:01.039Z,6.37
2018-03-28T17:48:05.237Z,6.90
2018-03-28T17:51:08.614Z,9.10
2018-03-28T17:54:15.739Z,8.00
2018-03-28T17:57:19.110Z,7.25
2018-03-28T18:00:22.452Z,7.35
2018-03-28T18:03:25.858Z,8.82
2018-03-28T18:06:29.166Z,6.25
2018-03-28T18:09:32.490Z,7.07
2018-03-28T18:12:36.148Z,7.55
2018-03-28T18:15:40.350Z,9.68
2018-03-28T18:18:44.444Z,8.68
2018-03-28T18:21:48.601Z,5.07
2018-03-28T18:24:52.013Z,6.47
2018-03-28T18:27:55.421Z,6.35
2018-03-28T18:30:58.756Z,6.40
2018-03-28T18:34:02.307Z,6.45
2018-03-28T18:37:06.078Z,7.53
2018-03-28T18:40:09.430Z,6.93
2018-03-28T18:43:12.915Z,4.80
2018-03-28T18:46:16.289Z,6.30
2018-03-28T18:49:20.359Z,4.80
2018-03-28T18:52:23.618Z,5.40
2018-03-28T18:55:27.746Z,5.95
2018-03-28T18:58:31.542Z,5.47
2018-03-28T19:01:34.901Z,5.93
2018-03-28T19:04:38.717Z,5.90
2018-03-28T19:07:42.788Z,6.40
2018-03-28T19:10:46.255Z,9.45
2018-03-28T19:13:49.591Z,5.93
2018-03-28T19:16:54.155Z,6.00
2018-03-28T19:19:57.486Z,6.57
2018-03-28T19:23:01.047Z,6.00
2018-03-28T19:26:04.326Z,6.72
2018-03-28T19:29:07.744Z,6.43
2018-03-28T19:32:11.139Z,5.00
2018-03-28T19:35:14.504Z,7.35
2018-03-28T19:38:17.890Z,5.55
2018-03-28T19:41:21.221Z,5.97
2018-03-28T19:44:25.395Z,6.57
2018-03-28T19:47:28.764Z,5.87
2018-03-28T19:50:32.154Z,5.28
2018-03-28T19:53:35.467Z,5.57
2018-03-28T19:56:39.536Z,6.32
2018-03-28T19:59:42.884Z,5.62
2018-03-28T20:02:47.008Z,5.30
2018-03-28T20:05:51.128Z,5.85
2018-03-28T20:08:55.278Z,5.20
2018-03-28T20:11:58.805Z,4.70
2018-03-28T20:15:02.329Z,5.28
2018-03-28T20:18:05.732Z,5.20
2018-03-28T20:21:09.246Z,4.50
2018-03-28T20:24:12.669Z,4.50
2018-03-28T20:27:16.266Z,5.05
2018-03-28T20:30:19.632Z,5.12
2018-03-28T20:33:23.452Z,5.00
2018-03-28T20:36:26.790Z,5.62
2018-03-28T20:39:30.797Z,4.30
2018-03-28T20:42:34.050Z,3.97
2018-03-28T20:45:37.438Z,4.70
2018-03-28T20:48:41.492Z,4.10
2018-03-28T20:51:45.175Z,4.18
2018-03-28T20:54:48.407Z,3.78
2018-03-28T20:57:51.786Z,4.32
2018-03-28T21:00:55.833Z,4.55
2018-03-28T21:03:59.487Z,4.20
2018-03-28T21:07:03.555Z,3.40
2018-03-28T21:10:06.839Z,3.22
2018-03-28T21:13:10.115Z,3.42
2018-03-28T21:16:14.340Z,3.30
2018-03-28T21:19:18.508Z,3.72
2018-03-28T21:22:21.850Z,3.85
2018-03-28T21:25:25.151Z,3.40
2018-03-28T21:28:28.432Z,3.60
2018-03-28T21:31:31.982Z,3.62
2018-03-28T21:34:35.302Z,3.17
2018-03-28T21:37:38.604Z,2.92
2018-03-28T21:40:42.686Z,3.00
2018-03-28T21:43:46.016Z,3.15
2018-03-28T21:46:49.268Z,2.87
2018-03-28T21:49:52.637Z,3.20
2018-03-28T21:52:55.891Z,2.47
2018-03-28T21:55:59.188Z,3.00
2018-03-28T21:59:02.479Z,2.85
2018-03-28T22:02:05.842Z,2.80
2018-03-28T22:05:09.870Z,3.20
2018-03-28T22:08:13.186Z,3.03
2018-03-28T22:11:16.425Z,2.67
2018-03-28T22:14:20.851Z,2.67
2018-03-28T22:17:24.849Z,2.60
2018-03-28T22:20:28.439Z,3.25
2018-03-28T22:23:31.803Z,3.65
2018-03-28T22:26:35.122Z,3.50
2018-03-28T22:29:38.376Z,4.03
2018-03-28T22:32:42.434Z,4.28
2018-03-28T22:35:45.728Z,4.00
2018-03-28T22:38:49.019Z,4.55
2018-03-28T22:41:52.318Z,4.37
2018-03-28T22:44:55.649Z,4.53
2018-03-28T22:47:59.359Z,4.90
2018-03-28T22:51:02.617Z,4.55
2018-03-28T22:54:06.372Z,5.03
2018-03-28T22:57:10.404Z,4.37
2018-03-28T23:00:13.687Z,4.57
2018-03-28T23:03:17.736Z,4.55
2018-03-28T23:06:21.099Z,5.15
2018-03-28T23:09:24.331Z,4.18
2018-03-28T23:12:27.790Z,3.72
2018-03-28T23:15:31.241Z,3.97
2018-03-28T23:18:34.501Z,4.20
2018-03-28T23:21:37.768Z,4.50
2018-03-28T23:24:41.845Z,4.50
2018-03-28T23:27:45.409Z,4.28
2018-03-28T23:30:49.441Z,4.32
2018-03-28T23:33:53.192Z,4.45
2018-03-28T23:36:56.449Z,4.12
2018-03-28T23:39:59.745Z,4.50
2018-03-28T23:43:03.012Z,4.57
2018-03-28T23:46:07.530Z,4.47
2018-03-28T23:49:10.925Z,5.15
2018-03-28T23:52:14.222Z,4.75
2018-03-28T23:55:18.247Z,5.35
2018-03-28T23:58:21.575Z,4.62
